Time;durP1;ratioP1;P1;durP2;ratioP2;P2;SDS_P1;SDS_P2;PMS_P1;PMS_P2;Temp;Humidity;BMP_temperature;BMP_pressure;BME280_temperature;BME280_humidity;BME280_pressure;Samples;Min_cycle;Max_cycle;Signal;HPM_P1;HPM_P2
2023/03/31 00:00:31;;;;;;;7.78;4.80;;;;;;;;;;4984854;28;20516;-78
2023/03/31 00:02:59;;;;;;;6.05;4.97;;;;;;;;;;4971768;28;20038;-79
2023/03/31 00:05:27;;;;;;;5.53;4.30;;;;;;;;;;4985039;28;20042;-78
2023/03/31 00:07:59;;;;;;;7.07;4.30;;;;;;;;;;4982673;28;20046;-78
2023/03/31 00:10:28;;;;;;;8.20;4.93;;;;;;;;;;4985359;28;20106;-78
2023/03/31 00:12:55;;;;;;;7.30;5.80;;;;;;;;;;4972783;28;20394;-78
2023/03/31 00:15:23;;;;;;;6.72;4.85;;;;;;;;;;4976562;28;20055;-78
2023/03/31 00:17:50;;;;;;;7.15;4.45;;;;;;;;;;4977254;28;20053;-78
2023/03/31 00:20:18;;;;;;;4.78;4.07;;;;;;;;;;4973479;28;20445;-78
2023/03/31 00:22:45;;;;;;;8.27;5.18;;;;;;;;;;4978130;28;20508;-78
2023/03/31 00:25:14;;;;;;;10.57;4.78;;;;;;;;;;4973339;28;20130;-78
2023/03/31 00:27:44;;;;;;;7.35;4.13;;;;;;;;;;4976022;28;20047;-78
2023/03/31 00:30:13;;;;;;;11.35;4.60;;;;;;;;;;4980456;28;20054;-78
2023/03/31 00:32:40;;;;;;;16.90;5.18;;;;;;;;;;4981956;28;20058;-78
2023/03/31 00:35:08;;;;;;;11.23;5.20;;;;;;;;;;4973583;28;20525;-78
2023/03/31 00:37:35;;;;;;;14.40;4.90;;;;;;;;;;4976034;28;20057;-78
2023/03/31 00:40:08;;;;;;;44.50;5.05;;;;;;;;;;4960060;28;20050;-78
2023/03/31 00:42:40;;;;;;;18.60;4.47;;;;;;;;;;4978258;28;20070;-78
2023/03/31 00:45:08;;;;;;;;;;;;;;;;;;4968373;28;20062;-78
2023/03/31 00:47:35;;;;;;;12.82;4.38;;;;;;;;;;4979997;28;20391;-78
2023/03/31 00:50:02;;;;;;;10.55;4.05;;;;;;;;;;4964122;28;20054;-78
2023/03/31 00:52:34;;;;;;;28.73;5.00;;;;;;;;;;4970077;28;20550;-77
2023/03/31 00:55:05;;;;;;;13.48;4.03;;;;;;;;;;4963436;28;20046;-78
2023/03/31 00:57:38;;;;;;;13.93;4.00;;;;;;;;;;4977141;28;20153;-77
2023/03/31 01:00:17;;;;;;;59.72;5.47;;;;;;;;;;4961712;28;20039;-78
2023/03/31 01:02:51;;;;;;;45.70;5.03;;;;;;;;;;4983721;28;20400;-78
2023/03/31 01:05:21;;;;;;;24.25;4.40;;;;;;;;;;4978587;28;20133;-77
2023/03/31 01:07:50;;;;;;;34.63;4.75;;;;;;;;;;4977093;28;20049;-78
2023/03/31 01:10:18;;;;;;;32.10;5.65;;;;;;;;;;4978681;28;20058;-78
2023/03/31 01:12:53;;;;;;;39.85;6.38;;;;;;;;;;4982859;28;20137;-78
2023/03/31 01:15:21;;;;;;;28.73;5.53;;;;;;;;;;4974337;28;20054;-77
2023/03/31 01:17:49;;;;;;;37.00;6.05;;;;;;;;;;4963162;28;20070;-78
2023/03/31 01:20:31;;;;;;;48.65;5.82;;;;;;;;;;4966142;28;20412;-78
2023/03/31 01:22:58;;;;;;;23.33;5.03;;;;;;;;;;4983899;28;20429;-78
2023/03/31 01:25:37;;;;;;;48.05;5.88;;;;;;;;;;4973838;28;20301;-77
2023/03/31 01:28:14;;;;;;;15.55;5.05;;;;;;;;;;4971250;28;20043;-77
2023/03/31 01:31:09;;;;;;;18.25;4.07;;;;;;;;;;4979837;28;20129;-77
2023/03/31 01:33:56;;;;;;;41.33;6.78;;;;;;;;;;4986471;28;20066;-78
2023/03/31 01:36:32;;;;;;;39.25;6.78;;;;;;;;;;4976265;28;20050;-77
2023/03/31 01:39:18;;;;;;;26.42;6.03;;;;;;;;;;4967872;28;20042;-77
2023/03/31 01:41:53;;;;;;;16.33;4.93;;;;;;;;;;4970305;28;20055;-77
2023/03/31 01:44:30;;;;;;;27.38;5.40;;;;;;;;;;4982171;28;20074;-77
2023/03/31 01:47:04;;;;;;;26.42;6.05;;;;;;;;;;4973972;28;20102;-77
2023/03/31 01:49:50;;;;;;;140.77;6.90;;;;;;;;;;4984251;28;20046;-77
2023/03/31 01:52:36;;;;;;;34.40;5.97;;;;;;;;;;4979312;28;20527;-78
2023/03/31 01:55:08;;;;;;;63.75;7.35;;;;;;;;;;4978409;28;20521;-78
2023/03/31 01:57:38;;;;;;;83.80;6.97;;;;;;;;;;4960720;28;20069;-78
2023/03/31 02:00:13;;;;;;;23.33;6.93;;;;;;;;;;4966757;28;20046;-77
2023/03/31 02:02:40;;;;;;;16.58;6.53;;;;;;;;;;4977824;28;20129;-77
2023/03/31 02:05:10;;;;;;;16.80;5.28;;;;;;;;;;4980839;28;20038;-78
2023/03/31 02:07:42;;;;;;;31.38;6.15;;;;;;;;;;4983073;28;20042;-78
2023/03/31 02:10:11;;;;;;;25.58;6.63;;;;;;;;;;4971965;28;20130;-77
2023/03/31 02:12:40;;;;;;;35.58;6.38;;;;;;;;;;4959142;28;20423;-77
2023/03/31 02:15:10;;;;;;;24.23;6.50;;;;;;;;;;4951501;28;20652;-77
2023/03/31 02:17:39;;;;;;;9.48;5.35;;;;;;;;;;4979995;28;20061;-77
2023/03/31 02:20:08;;;;;;;36.20;8.60;;;;;;;;;;4983988;28;20046;-78
2023/03/31 02:22:36;;;;;;;32.78;7.72;;;;;;;;;;4971350;28;20046;-77
2023/03/31 02:25:07;;;;;;;17.40;5.95;;;;;;;;;;4958814;28;20042;-77
2023/03/31 02:27:36;;;;;;;17.10;5.68;;;;;;;;;;4983402;28;20515;-77
2023/03/31 02:30:04;;;;;;;21.10;7.22;;;;;;;;;;4968958;28;20082;-77
2023/03/31 02:32:34;;;;;;;75.03;62.90;;;;;;;;;;4960281;28;20416;-78
2023/03/31 02:35:01;;;;;;;17.60;7.03;;;;;;;;;;4978383;28;20440;-78
2023/03/31 02:37:29;;;;;;;20.42;6.90;;;;;;;;;;4963879;28;20068;-78
2023/03/31 02:39:58;;;;;;;26.42;7.78;;;;;;;;;;4967656;28;20065;-78
2023/03/31 02:42:26;;;;;;;49.72;7.18;;;;;;;;;;4958310;28;20420;-77
2023/03/31 02:44:53;;;;;;;47.70;6.55;;;;;;;;;;4971577;28;20106;-77
2023/03/31 02:47:21;;;;;;;55.80;7.80;;;;;;;;;;4963367;28;20050;-78
2023/03/31 02:49:52;;;;;;;30.65;7.53;;;;;;;;;;4958914;28;20049;-77
2023/03/31 02:52:22;;;;;;;24.63;6.55;;;;;;;;;;4972068;28;20484;-78
2023/03/31 02:55:09;;;;;;;24.52;6.53;;;;;;;;;;4963980;28;20050;-78
2023/03/31 02:58:03;;;;;;;15.40;7.00;;;;;;;;;;4987689;28;20137;-77
2023/03/31 03:00:40;;;;;;;33.15;7.00;;;;;;;;;;4969589;28;20058;-77
2023/03/31 03:03:22;;;;;;;54.83;7.20;;;;;;;;;;4958154;28;20042;-78
2023/03/31 03:06:01;;;;;;;12.63;6.13;;;;;;;;;;4963889;28;20070;-77
2023/03/31 03:08:41;;;;;;;16.33;6.63;;;;;;;;;;4991154;28;20530;-77
2023/03/31 03:11:20;;;;;;;16.58;6.85;;;;;;;;;;4974814;28;20046;-78
2023/03/31 03:13:53;;;;;;;13.07;6.85;;;;;;;;;;4962397;28;20125;-78
2023/03/31 03:16:26;;;;;;;50.60;7.28;;;;;;;;;;4958934;28;20043;-77
2023/03/31 03:18:57;;;;;;;102.90;7.38;;;;;;;;;;4957876;28;20439;-77
2023/03/31 03:21:25;;;;;;;120.38;9.23;;;;;;;;;;4972334;28;20050;-77
2023/03/31 03:23:53;;;;;;;22.48;6.38;;;;;;;;;;4971196;28;20446;-77
2023/03/31 03:26:22;;;;;;;18.38;6.78;;;;;;;;;;4978031;28;20049;-77
2023/03/31 03:28:50;;;;;;;10.93;6.15;;;;;;;;;;4979470;28;20043;-77
2023/03/31 03:31:18;;;;;;;14.40;6.07;;;;;;;;;;4977278;28;20058;-77
2023/03/31 03:33:45;;;;;;;37.08;7.00;;;;;;;;;;4981179;28;20116;-77
2023/03/31 03:36:12;;;;;;;37.08;7.88;;;;;;;;;;4979390;28;20148;-78
2023/03/31 03:38:40;;;;;;;48.03;8.60;;;;;;;;;;4982350;28;20504;-77
2023/03/31 03:41:07;;;;;;;32.58;7.72;;;;;;;;;;4982523;28;20155;-77
2023/03/31 03:43:35;;;;;;;52.20;8.07;;;;;;;;;;4988264;28;20129;-78
2023/03/31 03:46:03;;;;;;;41.72;8.40;;;;;;;;;;4985801;28;20393;-77
2023/03/31 03:48:31;;;;;;;23.00;8.27;;;;;;;;;;4973953;28;20053;-78
2023/03/31 03:51:02;;;;;;;22.20;7.88;;;;;;;;;;4981562;28;20050;-77
2023/03/31 03:53:29;;;;;;;21.20;8.57;;;;;;;;;;4978445;28;20049;-77
2023/03/31 03:55:58;;;;;;;16.52;7.85;;;;;;;;;;4972264;28;20381;-78
2023/03/31 03:58:25;;;;;;;19.58;9.35;;;;;;;;;;4971437;28;20436;-77
2023/03/31 04:00:53;;;;;;;30.55;8.30;;;;;;;;;;4984500;28;20045;-77
2023/03/31 04:03:22;;;;;;;24.55;8.80;;;;;;;;;;4974317;28;20338;-78
2023/03/31 04:05:49;;;;;;;17.83;8.77;;;;;;;;;;4974412;28;20043;-78
2023/03/31 04:08:17;;;;;;;25.60;9.18;;;;;;;;;;4970861;28;20051;-77
2023/03/31 04:10:47;;;;;;;22.50;9.55;;;;;;;;;;4979569;28;20493;-77
2023/03/31 04:13:15;;;;;;;29.67;9.95;;;;;;;;;;4973340;28;20465;-77
2023/03/31 04:15:43;;;;;;;32.40;10.07;;;;;;;;;;4977190;28;20074;-77
2023/03/31 04:18:21;;;;;;;36.45;11.73;;;;;;;;;;4972749;28;20445;-77
2023/03/31 04:21:05;;;;;;;42.45;13.60;;;;;;;;;;4979915;28;20053;-77
2023/03/31 04:23:33;;;;;;;30.20;11.40;;;;;;;;;;4978231;28;20102;-77
2023/03/31 04:26:01;;;;;;;24.80;11.70;;;;;;;;;;4982837;28;20038;-77
2023/03/31 04:28:33;;;;;;;25.15;10.77;;;;;;;;;;4972742;28;20038;-77
2023/03/31 04:31:02;;;;;;;54.47;37.03;;;;;;;;;;4968392;28;20050;-77
2023/03/31 04:33:29;;;;;;;27.60;15.93;;;;;;;;;;4972224;28;20046;-77
2023/03/31 04:36:05;;;;;;;25.38;16.27;;;;;;;;;;4975145;28;20595;-77
2023/03/31 04:38:33;;;;;;;31.13;14.80;;;;;;;;;;4967154;28;20125;-77
2023/03/31 04:41:01;;;;;;;46.47;16.90;;;;;;;;;;4972729;28;20134;-77
2023/03/31 04:43:28;;;;;;;28.85;15.65;;;;;;;;;;4968207;28;20440;-77
2023/03/31 04:45:56;;;;;;;36.20;14.90;;;;;;;;;;4972538;28;20542;-77
2023/03/31 04:48:23;;;;;;;49.38;16.15;;;;;;;;;;4984666;28;20042;-77
2023/03/31 04:50:51;;;;;;;34.47;15.00;;;;;;;;;;4980221;28;20153;-77
2023/03/31 04:53:18;;;;;;;34.80;13.32;;;;;;;;;;4975370;28;20592;-77
2023/03/31 04:55:46;;;;;;;42.53;12.45;;;;;;;;;;4985446;28;20049;-77
2023/03/31 04:58:13;;;;;;;34.08;10.20;;;;;;;;;;4984104;28;20531;-77
2023/03/31 05:00:41;;;;;;;34.20;10.75;;;;;;;;;;4973940;28;20392;-77
2023/03/31 05:03:08;;;;;;;24.45;11.98;;;;;;;;;;4971843;28;20580;-77
2023/03/31 05:05:36;;;;;;;29.27;11.10;;;;;;;;;;4973169;28;20058;-77
2023/03/31 05:08:04;;;;;;;28.02;11.55;;;;;;;;;;4974508;28;20065;-77
2023/03/31 05:10:31;;;;;;;25.15;11.80;;;;;;;;;;4982981;28;20053;-77
2023/03/31 05:12:58;;;;;;;35.10;7.70;;;;;;;;;;4980467;28;20050;-77
2023/03/31 05:15:26;;;;;;;15.68;8.80;;;;;;;;;;4977212;28;20502;-77
2023/03/31 05:17:53;;;;;;;17.77;10.18;;;;;;;;;;4972237;28;20058;-77
2023/03/31 05:20:21;;;;;;;16.58;10.05;;;;;;;;;;4977650;28;20132;-77
2023/03/31 05:22:49;;;;;;;18.33;10.35;;;;;;;;;;4979253;28;20050;-77
2023/03/31 05:25:19;;;;;;;18.63;10.75;;;;;;;;;;4976729;28;20076;-77
2023/03/31 05:27:47;;;;;;;15.48;10.98;;;;;;;;;;4965602;28;20041;-77
2023/03/31 05:30:15;;;;;;;15.38;9.77;;;;;;;;;;4970427;28;20117;-77
2023/03/31 05:32:42;;;;;;;17.92;10.45;;;;;;;;;;4975176;28;20109;-77
2023/03/31 05:35:10;;;;;;;19.88;10.30;;;;;;;;;;4978200;28;20062;-78
2023/03/31 05:37:37;;;;;;;20.58;10.38;;;;;;;;;;4974114;28;20144;-77
2023/03/31 05:40:07;;;;;;;15.38;8.68;;;;;;;;;;4966745;28;20058;-77
2023/03/31 05:42:34;;;;;;;11.65;7.93;;;;;;;;;;4968860;28;20042;-77
2023/03/31 05:45:02;;;;;;;11.13;7.88;;;;;;;;;;4958287;28;20081;-78
2023/03/31 05:47:31;;;;;;;13.35;8.32;;;;;;;;;;4960653;28;20149;-77
2023/03/31 05:49:58;;;;;;;12.07;7.63;;;;;;;;;;4980321;28;20081;-77
2023/03/31 05:52:26;;;;;;;11.02;7.50;;;;;;;;;;4984981;28;20093;-78
2023/03/31 05:54:53;;;;;;;9.18;7.15;;;;;;;;;;4985333;28;20046;-77
2023/03/31 05:57:21;;;;;;;12.18;7.13;;;;;;;;;;4985102;28;20062;-77
2023/03/31 05:59:48;;;;;;;12.13;7.50;;;;;;;;;;4971973;28;20046;-78
2023/03/31 06:02:16;;;;;;;8.05;6.30;;;;;;;;;;4989478;28;20465;-77
2023/03/31 06:04:43;;;;;;;11.93;6.90;;;;;;;;;;4971202;28;20505;-78
2023/03/31 06:07:12;;;;;;;13.88;7.57;;;;;;;;;;4977225;28;20121;-78
2023/03/31 06:09:39;;;;;;;10.35;7.50;;;;;;;;;;4978226;28;20126;-77
2023/03/31 06:12:09;;;;;;;10.90;7.53;;;;;;;;;;4991505;28;20531;-77
2023/03/31 06:14:36;;;;;;;14.40;8.10;;;;;;;;;;4993265;28;20054;-77
2023/03/31 06:17:04;;;;;;;10.50;7.65;;;;;;;;;;4982543;28;20047;-77
2023/03/31 06:19:31;;;;;;;13.48;7.97;;;;;;;;;;4971438;28;20509;-77
2023/03/31 06:21:59;;;;;;;12.27;7.97;;;;;;;;;;4991869;23;20803;-82
2023/03/31 06:24:26;;;;;;;13.73;9.07;;;;;;;;;;4983367;28;20570;-82
2023/03/31 06:26:54;;;;;;;11.80;7.97;;;;;;;;;;4990596;28;20055;-82
2023/03/31 06:29:21;;;;;;;12.50;8.45;;;;;;;;;;4976263;28;20046;-83
2023/03/31 06:31:48;;;;;;;11.60;7.68;;;;;;;;;;4976202;28;20043;-82
2023/03/31 06:34:16;;;;;;;13.95;7.90;;;;;;;;;;4989420;28;20054;-83
2023/03/31 06:36:47;;;;;;;10.77;8.05;;;;;;;;;;5000847;28;20114;-83
2023/03/31 06:39:14;;;;;;;15.18;8.20;;;;;;;;;;4978086;28;20068;-83
2023/03/31 06:41:41;;;;;;;12.90;8.70;;;;;;;;;;4985932;28;20047;-83
2023/03/31 06:44:09;;;;;;;18.48;9.10;;;;;;;;;;4998929;28;20078;-83
2023/03/31 06:46:36;;;;;;;30.73;10.98;;;;;;;;;;4970209;28;20047;-82
2023/03/31 06:49:11;;;;;;;25.85;9.57;;;;;;;;;;4991650;28;20074;-82
2023/03/31 06:51:38;;;;;;;27.45;10.13;;;;;;;;;;4989533;28;20042;-81
2023/03/31 06:54:05;;;;;;;20.52;9.05;;;;;;;;;;4973079;28;20354;-82
2023/03/31 06:56:33;;;;;;;23.92;9.95;;;;;;;;;;4994319;28;20105;-82
2023/03/31 06:59:00;;;;;;;14.55;8.45;;;;;;;;;;4988024;28;20057;-83
2023/03/31 07:01:28;;;;;;;30.98;9.88;;;;;;;;;;4989977;28;20747;-83
2023/03/31 07:03:56;;;;;;;11.85;7.60;;;;;;;;;;4992719;28;20043;-83
2023/03/31 07:06:23;;;;;;;12.40;7.78;;;;;;;;;;4978515;28;20038;-81
2023/03/31 07:08:50;;;;;;;19.05;10.18;;;;;;;;;;4987857;28;20106;-82
2023/03/31 07:11:18;;;;;;;11.38;8.63;;;;;;;;;;4992954;28;20066;-82
2023/03/31 07:13:47;;;;;;;15.27;8.93;;;;;;;;;;4978094;28;20118;-81
2023/03/31 07:16:22;;;;;;;12.55;9.05;;;;;;;;;;4973119;28;20102;-83
2023/03/31 07:18:53;;;;;;;16.67;9.25;;;;;;;;;;4983449;28;20097;-82
2023/03/31 07:21:20;;;;;;;14.93;8.52;;;;;;;;;;4983715;28;20074;-79
2023/03/31 07:23:48;;;;;;;12.68;7.90;;;;;;;;;;4983429;28;20133;-82
2023/03/31 07:26:15;;;;;;;17.98;9.43;;;;;;;;;;4986992;28;20070;-80
2023/03/31 07:28:43;;;;;;;15.63;9.70;;;;;;;;;;4989874;28;20046;-82
2023/03/31 07:31:11;;;;;;;14.45;9.48;;;;;;;;;;4989572;28;20045;-82
2023/03/31 07:33:39;;;;;;;14.43;9.60;;;;;;;;;;4983216;28;20069;-84
2023/03/31 07:36:06;;;;;;;26.05;15.98;;;;;;;;;;4963465;28;20157;-81
2023/03/31 07:38:44;;;;;;;100.90;19.48;;;;;;;;;;4979088;28;20112;-83
2023/03/31 07:41:11;;;;;;;;;;;;;;;;;;4966088;28;20579;-84
2023/03/31 07:43:39;;;;;;;14.18;10.32;;;;;;;;;;4957332;28;19961;-81
2023/03/31 07:46:13;;;;;;;24.65;13.18;;;;;;;;;;4973313;28;20443;-81
2023/03/31 07:48:40;;;;;;;18.17;11.18;;;;;;;;;;4978328;28;20122;-81
2023/03/31 07:51:08;;;;;;;17.63;10.93;;;;;;;;;;4961179;28;20047;-81
2023/03/31 07:53:38;;;;;;;17.38;10.15;;;;;;;;;;4985384;28;20053;-82
2023/03/31 07:56:05;;;;;;;20.08;10.95;;;;;;;;;;4962716;28;20038;-81
2023/03/31 07:58:38;;;;;;;17.48;11.27;;;;;;;;;;4961946;28;20050;-82
2023/03/31 08:01:06;;;;;;;24.00;10.57;;;;;;;;;;4958361;28;20054;-82
2023/03/31 08:03:34;;;;;;;18.10;10.13;;;;;;;;;;4979036;28;20047;-85
2023/03/31 08:06:02;;;;;;;13.98;9.23;;;;;;;;;;4977370;28;20086;-81
2023/03/31 08:08:29;;;;;;;11.45;8.85;;;;;;;;;;4975484;28;20035;-83
2023/03/31 08:10:57;;;;;;;13.55;8.60;;;;;;;;;;4980530;28;20049;-81
2023/03/31 08:13:25;;;;;;;11.70;8.10;;;;;;;;;;4976290;28;20412;-82
2023/03/31 08:15:55;;;;;;;16.40;8.68;;;;;;;;;;4957102;28;20043;-82
2023/03/31 08:18:49;;;;;;;14.00;8.52;;;;;;;;;;4952868;28;20050;-84
2023/03/31 08:21:24;;;;;;;13.27;8.65;;;;;;;;;;4973556;28;20125;-84
2023/03/31 08:23:53;;;;;;;12.02;9.43;;;;;;;;;;4977785;28;20049;-81
2023/03/31 08:26:25;;;;;;;13.13;9.93;;;;;;;;;;4969291;28;20392;-79
2023/03/31 08:28:53;;;;;;;16.08;10.52;;;;;;;;;;4967472;28;20035;-80
2023/03/31 08:31:22;;;;;;;14.80;10.18;;;;;;;;;;4978947;28;20054;-78
2023/03/31 08:33:54;;;;;;;12.65;10.05;;;;;;;;;;4986897;28;20042;-80
2023/03/31 08:36:29;;;;;;;12.65;9.55;;;;;;;;;;4988236;28;20043;-80
2023/03/31 08:38:57;;;;;;;12.85;9.35;;;;;;;;;;4987998;28;20116;-81
2023/03/31 08:41:24;;;;;;;13.90;9.55;;;;;;;;;;4982603;28;20047;-81
2023/03/31 08:43:53;;;;;;;14.05;9.80;;;;;;;;;;4985906;28;20128;-82
2023/03/31 08:46:21;;;;;;;11.55;8.30;;;;;;;;;;4982332;28;20141;-80
2023/03/31 08:48:50;;;;;;;11.00;8.82;;;;;;;;;;4986584;28;20125;-82
2023/03/31 08:51:20;;;;;;;10.00;7.45;;;;;;;;;;4987944;28;20043;-82
2023/03/31 08:54:03;;;;;;;9.55;7.47;;;;;;;;;;4987806;28;20130;-82
2023/03/31 08:56:36;;;;;;;10.45;8.23;;;;;;;;;;4969865;28;20053;-82
2023/03/31 08:59:05;;;;;;;16.35;9.43;;;;;;;;;;4988690;28;20081;-82
2023/03/31 09:01:42;;;;;;;18.58;14.63;;;;;;;;;;4987519;28;20046;-80
2023/03/31 09:04:32;;;;;;;14.25;9.35;;;;;;;;;;4987122;28;20046;-82
2023/03/31 09:07:19;;;;;;;14.85;9.43;;;;;;;;;;4993970;28;20059;-83
2023/03/31 09:10:06;;;;;;;14.90;8.63;;;;;;;;;;4976199;28;20379;-82
2023/03/31 09:12:49;;;;;;;14.20;9.60;;;;;;;;;;4979525;28;20490;-81
2023/03/31 09:15:19;;;;;;;13.85;9.18;;;;;;;;;;4994248;28;20141;-81
2023/03/31 09:17:50;;;;;;;13.35;8.65;;;;;;;;;;4989256;28;20071;-81
2023/03/31 09:20:32;;;;;;;15.52;8.52;;;;;;;;;;4985865;28;20070;-79
2023/03/31 09:23:26;;;;;;;18.55;11.25;;;;;;;;;;4983696;28;20054;-82
2023/03/31 09:25:54;;;;;;;16.50;10.18;;;;;;;;;;4987177;28;20049;-80
2023/03/31 09:28:26;;;;;;;31.05;24.13;;;;;;;;;;4984351;28;20061;-81
2023/03/31 09:30:54;;;;;;;16.77;10.25;;;;;;;;;;4985218;28;20061;-83
2023/03/31 09:33:30;;;;;;;19.60;11.98;;;;;;;;;;4975705;28;20058;-83
2023/03/31 09:36:18;;;;;;;14.95;10.70;;;;;;;;;;4990288;28;20057;-83
2023/03/31 09:38:53;;;;;;;12.13;9.57;;;;;;;;;;4968306;28;20049;-82
2023/03/31 09:41:20;;;;;;;19.20;11.27;;;;;;;;;;4982423;28;20133;-83
2023/03/31 09:43:50;;;;;;;16.70;11.50;;;;;;;;;;4970587;28;20131;-83
2023/03/31 09:46:21;;;;;;;14.93;9.80;;;;;;;;;;4986388;28;20043;-82
2023/03/31 09:48:55;;;;;;;17.90;11.00;;;;;;;;;;4977999;28;20046;-82
2023/03/31 09:51:26;;;;;;;16.55;9.45;;;;;;;;;;4983815;28;20051;-80
2023/03/31 09:53:57;;;;;;;16.25;8.80;;;;;;;;;;4968835;28;20057;-81
2023/03/31 09:56:45;;;;;;;16.97;10.90;;;;;;;;;;4984817;28;20113;-81
2023/03/31 09:59:16;;;;;;;15.38;8.82;;;;;;;;;;4971070;28;20297;-81
2023/03/31 10:01:45;;;;;;;16.88;9.55;;;;;;;;;;4966495;28;20046;-82
2023/03/31 10:04:17;;;;;;;16.15;9.68;;;;;;;;;;4961993;28;20453;-82
2023/03/31 10:06:46;;;;;;;14.18;9.35;;;;;;;;;;4960695;28;20042;-82
2023/03/31 10:09:15;;;;;;;20.35;11.30;;;;;;;;;;4984832;28;20050;-82
2023/03/31 10:12:02;;;;;;;14.70;11.10;;;;;;;;;;4987356;28;20047;-84
2023/03/31 10:15:25;;;;;;;15.27;8.38;;;;;;;;;;4979619;28;20050;-80
2023/03/31 10:17:52;;;;;;;11.90;7.20;;;;;;;;;;4975817;28;20121;-82
2023/03/31 10:20:25;;;;;;;15.55;9.30;;;;;;;;;;4978494;28;20049;-81
2023/03/31 10:22:52;;;;;;;13.43;8.10;;;;;;;;;;4963404;28;20042;-81
2023/03/31 10:25:26;;;;;;;13.00;9.40;;;;;;;;;;4963073;28;20074;-82
2023/03/31 10:27:55;;;;;;;13.23;9.48;;;;;;;;;;4992071;28;20057;-82
2023/03/31 10:30:25;;;;;;;16.67;9.27;;;;;;;;;;4975491;28;20057;-82
2023/03/31 10:32:52;;;;;;;18.30;9.50;;;;;;;;;;4984996;28;20054;-82
2023/03/31 10:35:21;;;;;;;29.27;17.02;;;;;;;;;;4981075;28;20121;-81
2023/03/31 10:37:50;;;;;;;18.58;9.60;;;;;;;;;;4969477;28;20619;-81
2023/03/31 10:40:23;;;;;;;22.40;10.50;;;;;;;;;;4969447;28;20051;-81
2023/03/31 10:42:58;;;;;;;16.10;10.73;;;;;;;;;;4971630;28;20039;-81
2023/03/31 10:45:27;;;;;;;15.52;9.95;;;;;;;;;;4971695;28;20062;-80
2023/03/31 10:48:08;;;;;;;14.63;9.82;;;;;;;;;;4972158;28;20046;-82
2023/03/31 10:50:36;;;;;;;11.43;8.38;;;;;;;;;;4959979;28;20047;-79
2023/03/31 10:53:11;;;;;;;17.92;9.13;;;;;;;;;;4960967;28;20043;-80
2023/03/31 10:55:45;;;;;;;16.10;9.25;;;;;;;;;;4971568;28;20047;-80
2023/03/31 10:58:13;;;;;;;16.60;9.23;;;;;;;;;;4974196;28;20082;-80
2023/03/31 11:00:56;;;;;;;13.65;9.07;;;;;;;;;;4969161;28;20077;-80
2023/03/31 11:03:42;;;;;;;14.18;7.95;;;;;;;;;;4956490;28;20066;-81
2023/03/31 11:06:15;;;;;;;12.43;8.95;;;;;;;;;;4969952;28;20054;-80
2023/03/31 11:08:52;;;;;;;11.57;9.00;;;;;;;;;;4973284;28;20102;-80
2023/03/31 11:11:25;;;;;;;13.45;8.35;;;;;;;;;;4976063;28;20046;-80
2023/03/31 11:13:58;;;;;;;14.50;10.32;;;;;;;;;;4972412;28;20082;-80
2023/03/31 11:16:40;;;;;;;14.70;8.55;;;;;;;;;;4973918;28;20054;-80
2023/03/31 11:19:31;;;;;;;11.68;8.10;;;;;;;;;;4965422;28;20094;-81
2023/03/31 11:22:01;;;;;;;9.43;6.93;;;;;;;;;;4962116;28;20055;-81
2023/03/31 11:24:36;;;;;;;13.48;7.82;;;;;;;;;;4970393;28;20477;-81
2023/03/31 11:27:07;;;;;;;9.50;7.60;;;;;;;;;;4954873;28;20043;-80
2023/03/31 11:29:48;;;;;;;9.88;7.70;;;;;;;;;;4971377;28;20081;-81
2023/03/31 11:32:24;;;;;;;15.50;8.30;;;;;;;;;;4972795;28;20043;-82
2023/03/31 11:34:58;;;;;;;11.35;7.93;;;;;;;;;;4954698;28;20493;-80
2023/03/31 11:37:34;;;;;;;10.32;7.60;;;;;;;;;;4957719;28;20054;-80
2023/03/31 11:40:26;;;;;;;11.18;7.60;;;;;;;;;;4954460;28;20424;-81
2023/03/31 11:42:59;;;;;;;10.25;7.70;;;;;;;;;;4949930;28;20047;-82
2023/03/31 11:45:40;;;;;;;10.68;8.77;;;;;;;;;;4951270;28;20519;-81
2023/03/31 11:48:38;;;;;;;11.57;7.28;;;;;;;;;;4948171;28;20077;-82
2023/03/31 11:54:11;;;;;;;10.88;8.13;;;;;;;;;;4965989;28;20050;-82
2023/03/31 11:56:40;;;;;;;8.68;6.95;;;;;;;;;;4979675;28;20035;-82
2023/03/31 11:59:12;;;;;;;7.10;6.40;;;;;;;;;;4978630;28;20051;-82
2023/03/31 12:02:06;;;;;;;9.85;6.53;;;;;;;;;;4971100;28;20183;-82
2023/03/31 12:04:37;;;;;;;10.35;6.30;;;;;;;;;;4923576;28;20047;-82
2023/03/31 12:07:17;;;;;;;7.97;6.18;;;;;;;;;;4968272;28;20042;-82
2023/03/31 12:09:52;;;;;;;7.07;5.40;;;;;;;;;;4950101;28;20078;-81
2023/03/31 12:12:25;;;;;;;9.90;5.65;;;;;;;;;;4966576;28;20088;-82
2023/03/31 12:14:54;;;;;;;6.18;5.30;;;;;;;;;;4985447;28;20058;-82
2023/03/31 12:17:28;;;;;;;5.97;5.45;;;;;;;;;;4976761;28;20051;-82
2023/03/31 12:19:59;;;;;;;9.98;5.07;;;;;;;;;;4971297;28;20046;-82
2023/03/31 12:22:29;;;;;;;5.18;4.40;;;;;;;;;;4986520;23;20126;-84
2023/03/31 12:25:01;;;;;;;156.02;94.63;;;;;;;;;;4974521;28;20049;-84
2023/03/31 12:27:55;;;;;;;4.10;1.92;;;;;;;;;;4975886;28;20022;-81
2023/03/31 12:30:33;;;;;;;4.45;1.30;;;;;;;;;;4975321;28;20062;-82
2023/03/31 12:33:17;;;;;;;142.90;96.57;;;;;;;;;;4971173;28;20042;-83
2023/03/31 12:35:46;;;;;;;;;;;;;;;;;;4969382;28;20329;-84
2023/03/31 12:38:20;;;;;;;91.70;58.00;;;;;;;;;;4975149;28;19952;-81
2023/03/31 12:41:11;;;;;;;18.90;16.23;;;;;;;;;;4974795;28;20074;-84
2023/03/31 12:44:05;;;;;;;2.60;1.20;;;;;;;;;;4972888;28;20091;-81
2023/03/31 12:47:32;;;;;;;182.37;152.73;;;;;;;;;;4975330;28;20318;-82
2023/03/31 12:49:59;;;;;;;1.75;1.30;;;;;;;;;;4983299;28;20047;-82
2023/03/31 12:52:27;;;;;;;1.80;1.25;;;;;;;;;;4973327;28;20140;-82
2023/03/31 12:54:54;;;;;;;2.13;1.50;;;;;;;;;;4972642;28;20445;-83
2023/03/31 12:57:23;;;;;;;2.05;1.52;;;;;;;;;;4972033;28;20043;-83
2023/03/31 13:00:09;;;;;;;2.95;1.20;;;;;;;;;;4967542;28;20099;-82
2023/03/31 13:02:37;;;;;;;3.20;1.40;;;;;;;;;;4972112;28;20053;-83
2023/03/31 13:05:23;;;;;;;14.00;11.73;;;;;;;;;;4974289;28;20397;-84
2023/03/31 13:07:51;;;;;;;2.47;1.65;;;;;;;;;;4971378;28;20047;-82
2023/03/31 13:10:20;;;;;;;184.52;110.45;;;;;;;;;;4971193;28;20038;-84
2023/03/31 13:13:05;;;;;;;2.58;2.30;;;;;;;;;;4973786;28;20042;-83
2023/03/31 13:15:33;;;;;;;1.48;1.38;;;;;;;;;;4974384;28;20047;-84
2023/03/31 13:18:03;;;;;;;2.72;2.50;;;;;;;;;;4975387;28;20053;-83
2023/03/31 13:20:31;;;;;;;3.70;2.40;;;;;;;;;;4977681;28;20051;-83
2023/03/31 13:23:27;;;;;;;2.10;1.90;;;;;;;;;;4973964;28;20283;-85
2023/03/31 13:25:56;;;;;;;1.55;1.45;;;;;;;;;;4975050;28;20046;-84
2023/03/31 13:28:24;;;;;;;3.05;1.30;;;;;;;;;;4974971;28;20130;-82
2023/03/31 13:30:53;;;;;;;2.33;1.48;;;;;;;;;;4974476;28;20095;-82
2023/03/31 13:33:30;;;;;;;9.27;1.90;;;;;;;;;;4974163;28;20035;-83
2023/03/31 13:36:17;;;;;;;2.40;2.08;;;;;;;;;;4975127;28;20050;-84
2023/03/31 13:39:03;;;;;;;3.90;1.08;;;;;;;;;;4976374;28;20051;-83
2023/03/31 13:41:50;;;;;;;3.67;1.48;;;;;;;;;;4973966;28;20105;-82
2023/03/31 13:44:20;;;;;;;2.10;1.50;;;;;;;;;;4970791;28;20066;-84
2023/03/31 13:46:53;;;;;;;2.10;1.40;;;;;;;;;;4974299;28;20070;-83
2023/03/31 13:49:47;;;;;;;1.65;1.30;;;;;;;;;;4973255;28;20535;-82
2023/03/31 13:52:21;;;;;;;6.25;1.85;;;;;;;;;;4971189;28;20043;-82
2023/03/31 13:54:48;;;;;;;1.67;1.58;;;;;;;;;;4974238;28;20070;-83
2023/03/31 13:57:35;;;;;;;1.73;1.63;;;;;;;;;;4975948;28;20452;-84
2023/03/31 14:00:11;;;;;;;7.20;1.60;;;;;;;;;;4971506;28;20433;-83
2023/03/31 14:02:47;;;;;;;5.75;2.40;;;;;;;;;;4976435;28;20132;-81
2023/03/31 14:05:33;;;;;;;3.88;1.70;;;;;;;;;;4979474;28;20078;-83
2023/03/31 14:08:13;;;;;;;2.72;1.98;;;;;;;;;;4977860;28;20074;-80
2023/03/31 14:10:41;;;;;;;2.22;1.85;;;;;;;;;;4988016;28;20051;-83
2023/03/31 14:13:13;;;;;;;4.18;2.10;;;;;;;;;;4990195;28;20034;-83
2023/03/31 14:15:53;;;;;;;1.92;1.75;;;;;;;;;;4981415;28;20086;-83
2023/03/31 14:18:29;;;;;;;3.67;2.22;;;;;;;;;;4979482;28;20109;-83
2023/03/31 14:21:07;;;;;;;3.17;2.00;;;;;;;;;;4978088;28;20118;-81
2023/03/31 14:23:37;;;;;;;2.58;2.17;;;;;;;;;;4975404;28;20460;-83
2023/03/31 14:26:10;;;;;;;2.05;1.83;;;;;;;;;;4974218;28;20393;-84
2023/03/31 14:28:59;;;;;;;2.40;2.20;;;;;;;;;;4977410;28;20059;-82
2023/03/31 14:31:35;;;;;;;2.13;2.00;;;;;;;;;;4977231;28;20175;-84
2023/03/31 14:34:03;;;;;;;3.60;2.47;;;;;;;;;;4974816;28;20408;-84
2023/03/31 14:36:49;;;;;;;3.08;2.88;;;;;;;;;;4972608;28;20445;-80
2023/03/31 14:39:20;;;;;;;2.88;2.63;;;;;;;;;;4975819;28;20113;-82
2023/03/31 14:41:53;;;;;;;4.75;2.63;;;;;;;;;;4971227;28;20051;-81
2023/03/31 14:44:24;;;;;;;5.60;2.33;;;;;;;;;;4973747;28;20154;-83
2023/03/31 14:46:55;;;;;;;4.30;2.20;;;;;;;;;;4972323;28;20412;-82
2023/03/31 14:49:27;;;;;;;3.50;2.30;;;;;;;;;;4970633;28;20309;-82
2023/03/31 14:51:58;;;;;;;2.40;1.92;;;;;;;;;;4971142;28;20043;-82
2023/03/31 14:54:25;;;;;;;2.40;2.20;;;;;;;;;;4973578;28;20055;-83
2023/03/31 14:56:55;;;;;;;6.82;2.40;;;;;;;;;;4974105;28;20066;-82
2023/03/31 14:59:24;;;;;;;3.28;2.53;;;;;;;;;;4973947;28;20424;-83
2023/03/31 15:01:52;;;;;;;3.28;2.40;;;;;;;;;;4973654;28;20050;-84
2023/03/31 15:04:22;;;;;;;2.83;2.10;;;;;;;;;;4974894;28;20050;-83